Flugplatz Saarbrücken

Bericht für EDDR

vom 20.10. um 19:50 UTC

Wind 4 kt aus 300°

Sichtweite 10 km oder mehr

schwacher Regen

aufgelockert bewölkt in 4900 ft

Temperatur 14.0°C

Taupunkt 13.0°C

Luftfeuchtigkeit 94%

Luftdruck 1009 hPa

keine wesentliche Wetteränderung innerhalb den nächsten 2 Stunden zu erwarten

EDDR 201950Z 30004KT 220V350 9999 -RA SCT049 14/13 Q1009 NOSIG

Prognose für EDDR

vom 20.10. um 00:00 UTC

Zwischen 00:00 UTC und 00:00 UTC

Wind 4 kt aus 120°

Sichtweite 10 km oder mehr

gering bewölkt in 1500 ft

aufgelockert bewölkt in 4000 ft


Zwischen 00:00 UTC und 00:00 UTC zeitweise mit einer Wahrscheinlichkeit von 30%

Wind 12 kt aus 180°

Sichtweite 4000 m

Regenschauer

aufgebrochene Bewölkung in 1400 ft

aufgebrochene Bewölkung in 3000 ft


Zwischen 00:00 und 00:00 UTC übergehend zu

Wind 5 kt aus 210°

Sichtweite 10 km oder mehr

gering bewölkt in 1500 ft

aufgelockert bewölkt in 4000 ft


Am 21.10. zwischen 00:00 UTC und 00:00 UTC zeitweise mit einer Wahrscheinlichkeit von 30%

Sichtweite 3000 m

Nebelschwaden


Am 21.10. zwischen 00:00 und 00:00 UTC übergehend zu

Wind 10 kt aus 210°

Sichtweite 10 km oder mehr

gering bewölkt in 1500 ft

aufgelockert bewölkt in 4000 ft

TAF EDDR 201700Z 2018/2118 12004KT 9999 FEW015 SCT040 PROB30 TEMPO 2018/2101 18012KT 4000 SHRA BKN014 BKN030CB BECMG 2023/2102 21005KT PROB30 TEMPO 2101/2106 3000 BCFG BECMG 2106/2108 21010KT
Impressum